Time;durP1;ratioP1;P1;durP2;ratioP2;P2;SDS_P1;SDS_P2;PMS_P1;PMS_P2;Temp;Humidity;BMP_temperature;BMP_pressure;BME280_temperature;BME280_humidity;BME280_pressure;Samples;Min_cycle;Max_cycle;Signal;HPM_P1;HPM_P2
2022/10/15 00:01:44;;;;;;;36.13;23.27;;;;;;;12.13;100.00;100702.34;5026998;28;20033;-80
2022/10/15 00:04:09;;;;;;;38.47;23.00;;;;;;;12.13;100.00;100708.75;5030780;28;20534;-77
2022/10/15 00:06:34;;;;;;;39.58;23.80;;;;;;;12.10;100.00;100703.13;5042530;28;20048;-79
2022/10/15 00:09:00;;;;;;;41.25;23.70;;;;;;;12.13;100.00;100711.56;5026073;28;20115;-80
2022/10/15 00:11:27;;;;;;;40.58;23.40;;;;;;;12.08;100.00;100711.13;5037490;28;20052;-78
2022/10/15 00:13:58;;;;;;;37.58;23.42;;;;;;;12.05;100.00;100701.50;5040888;28;20516;-78
2022/10/15 00:16:26;;;;;;;36.42;23.13;;;;;;;12.08;100.00;100702.72;5022836;28;20063;-78
2022/10/15 00:18:55;;;;;;;38.30;23.25;;;;;;;12.03;100.00;100703.09;5046175;28;20032;-79
2022/10/15 00:21:20;;;;;;;37.38;22.83;;;;;;;12.00;100.00;100694.25;5040191;28;20032;-78
2022/10/15 00:23:47;;;;;;;35.35;21.35;;;;;;;12.03;100.00;100701.09;5046783;28;20916;-79
2022/10/15 00:26:15;;;;;;;37.85;21.00;;;;;;;12.02;100.00;100707.09;5051276;28;20082;-80
2022/10/15 00:28:41;;;;;;;38.80;22.33;;;;;;;11.93;100.00;100705.47;5039713;28;20075;-78
2022/10/15 00:31:12;;;;;;;36.03;22.60;;;;;;;11.86;100.00;100705.38;5042116;28;20443;-79
2022/10/15 00:33:38;;;;;;;35.72;21.58;;;;;;;11.91;100.00;100701.41;5041865;28;20116;-78
2022/10/15 00:36:11;;;;;;;35.95;21.92;;;;;;;11.92;100.00;100698.22;5044808;28;20091;-79
2022/10/15 00:38:37;;;;;;;35.53;21.52;;;;;;;11.86;100.00;100701.75;5038636;28;20599;-79
2022/10/15 00:41:04;;;;;;;36.80;22.05;;;;;;;11.91;100.00;100699.44;5028570;28;20035;-79
2022/10/15 00:43:41;;;;;;;37.10;21.25;;;;;;;11.91;100.00;100698.59;5042159;28;20032;-79
2022/10/15 00:46:34;;;;;;;38.63;21.45;;;;;;;11.89;100.00;100690.59;5025659;28;20289;-78
2022/10/15 00:49:20;;;;;;;35.03;21.10;;;;;;;11.89;100.00;100698.19;5021305;28;20033;-80
2022/10/15 00:52:11;;;;;;;37.10;22.65;;;;;;;11.74;100.00;100698.09;5040410;28;20522;-78
2022/10/15 00:54:40;;;;;;;35.78;22.25;;;;;;;11.78;100.00;100693.31;5034261;28;20124;-78
2022/10/15 00:57:06;;;;;;;33.22;22.25;;;;;;;11.82;100.00;100681.31;5040507;28;20040;-79
2022/10/15 00:59:35;;;;;;;34.65;20.60;;;;;;;11.78;100.00;100670.88;5039431;28;20033;-79
2022/10/15 01:02:01;;;;;;;36.67;21.10;;;;;;;11.81;100.00;100674.91;5025331;28;20100;-79
2022/10/15 01:04:28;;;;;;;40.38;21.75;;;;;;;11.78;100.00;100676.50;5026040;28;20036;-79
2022/10/15 01:06:53;;;;;;;34.20;21.20;;;;;;;11.86;100.00;100687.75;5038939;28;20028;-78
2022/10/15 01:09:19;;;;;;;36.63;21.77;;;;;;;11.84;100.00;100684.53;5018641;28;20447;-79
2022/10/15 01:11:51;;;;;;;37.97;21.05;;;;;;;11.81;100.00;100691.72;5019594;28;20109;-79
2022/10/15 01:14:25;;;;;;;35.47;21.45;;;;;;;11.77;100.00;100688.88;5019700;28;20516;-79
2022/10/15 01:16:58;;;;;;;39.83;20.17;;;;;;;11.63;100.00;100691.59;5030336;28;20037;-79
2022/10/15 01:19:48;;;;;;;40.85;20.48;;;;;;;11.82;100.00;100692.53;5033668;28;20074;-79
2022/10/15 01:23:06;;;;;;;35.50;20.48;;;;;;;11.80;100.00;100690.94;5035023;28;20574;-79
2022/10/15 01:26:06;;;;;;;40.67;23.23;;;;;;;11.70;100.00;100680.44;4978913;28;20033;-80
2022/10/15 01:28:38;;;;;;;32.50;20.52;;;;;;;11.83;100.00;100683.72;5034998;28;20028;-79
2022/10/15 01:31:43;;;;;;;34.78;19.85;;;;;;;11.80;100.00;100678.88;5021341;28;20028;-79
2022/10/15 01:34:23;;;;;;;41.35;21.27;;;;;;;11.89;100.00;100670.16;5014640;28;20033;-79
2022/10/15 01:37:08;;;;;;;41.42;23.20;;;;;;;11.75;100.00;100660.44;5021217;28;20111;-78
2022/10/15 01:39:45;;;;;;;37.05;21.77;;;;;;;11.87;100.00;100667.72;5020778;28;20097;-78
2022/10/15 01:42:55;;;;;;;37.05;21.33;;;;;;;11.90;100.00;100678.19;5025537;28;20021;-79
2022/10/15 01:45:36;;;;;;;39.08;21.77;;;;;;;11.80;100.00;100676.09;5012189;28;20229;-78
2022/10/15 01:48:07;;;;;;;37.42;19.98;;;;;;;11.84;100.00;100674.09;5018963;28;20396;-79
2022/10/15 01:50:36;;;;;;;33.50;19.98;;;;;;;11.88;100.00;100677.75;5023291;28;20025;-79
2022/10/15 01:53:04;;;;;;;42.47;23.00;;;;;;;11.82;100.00;100676.50;5025419;28;20483;-80
2022/10/15 01:55:32;;;;;;;36.55;19.45;;;;;;;11.87;100.00;100673.34;5040586;28;20047;-79
2022/10/15 01:57:59;;;;;;;35.65;20.45;;;;;;;11.91;100.00;100665.78;5034155;28;20437;-80
2022/10/15 02:00:24;;;;;;;32.05;19.65;;;;;;;11.94;100.00;100664.97;5038192;28;20094;-78
2022/10/15 02:02:49;;;;;;;34.58;19.88;;;;;;;11.87;100.00;100662.13;5020802;28;20411;-79
2022/10/15 02:05:23;;;;;;;35.78;20.08;;;;;;;11.89;100.00;100659.75;5021471;28;20044;-79
2022/10/15 02:08:18;;;;;;;39.55;20.52;;;;;;;11.95;100.00;100658.19;5024101;28;20025;-79
2022/10/15 02:10:59;;;;;;;35.75;20.20;;;;;;;11.94;100.00;100650.16;5034739;28;20141;-78
2022/10/15 02:13:36;;;;;;;39.20;21.55;;;;;;;11.84;100.00;100646.06;5034517;28;20124;-79
2022/10/15 02:16:17;;;;;;;40.30;22.20;;;;;;;11.91;100.00;100648.13;5033983;28;20030;-79
2022/10/15 02:19:05;;;;;;;32.28;20.30;;;;;;;11.94;100.00;100644.56;5020457;28;20078;-80
2022/10/15 02:21:39;;;;;;;39.55;21.52;;;;;;;11.94;100.00;100645.34;5051360;28;20025;-79
2022/10/15 02:24:11;;;;;;;33.67;20.85;;;;;;;11.90;100.00;100640.91;5024381;28;20064;-80
2022/10/15 02:26:39;;;;;;;38.10;20.40;;;;;;;11.87;100.00;100634.06;5044434;28;20056;-79
2022/10/15 02:29:09;;;;;;;38.85;23.38;;;;;;;11.89;100.00;100642.94;5016425;28;20436;-79
2022/10/15 02:31:38;;;;;;;40.00;21.85;;;;;;;11.90;100.00;100644.53;5039989;28;20067;-78
2022/10/15 02:34:10;;;;;;;35.95;21.13;;;;;;;11.90;100.00;100638.91;5019358;28;20025;-78
2022/10/15 02:36:39;;;;;;;42.97;21.70;;;;;;;11.86;100.00;100638.06;5020118;28;20032;-78
2022/10/15 02:39:06;;;;;;;41.60;21.33;;;;;;;11.85;100.00;100636.47;5035175;28;20596;-79
2022/10/15 02:41:34;;;;;;;41.10;22.98;;;;;;;11.78;100.00;100626.00;5032728;28;20094;-78
2022/10/15 02:43:59;;;;;;;38.13;23.05;;;;;;;11.83;100.00;100626.81;5035876;28;20473;-79
2022/10/15 02:46:24;;;;;;;42.47;23.25;;;;;;;11.71;100.00;100620.34;5039100;28;20058;-78
2022/10/15 02:48:50;;;;;;;46.88;25.90;;;;;;;11.67;100.00;100635.56;5037576;28;20104;-79
2022/10/15 02:51:15;;;;;;;44.22;24.90;;;;;;;11.71;100.00;100634.38;5041162;28;20048;-80
2022/10/15 02:53:40;;;;;;;46.53;25.92;;;;;;;11.67;100.00;100625.13;5035993;28;20158;-78
2022/10/15 02:56:06;;;;;;;46.13;25.65;;;;;;;11.72;100.00;100621.16;5039120;28;20120;-78
2022/10/15 02:58:31;;;;;;;47.63;27.27;;;;;;;11.75;100.00;100626.00;5036530;28;20501;-78
2022/10/15 03:00:57;;;;;;;49.55;24.08;;;;;;;11.70;100.00;100621.56;5035011;28;20021;-78
2022/10/15 03:03:22;;;;;;;45.58;25.08;;;;;;;11.70;100.00;100623.53;5036514;28;20107;-79
2022/10/15 03:05:47;;;;;;;43.90;24.70;;;;;;;11.73;100.00;100622.78;5018106;28;20071;-79
2022/10/15 03:08:13;;;;;;;49.58;26.17;;;;;;;11.73;100.00;100622.78;5034533;28;20040;-78
2022/10/15 03:10:38;;;;;;;46.85;24.73;;;;;;;11.67;100.00;100629.94;5039452;28;20017;-79
2022/10/15 03:13:04;;;;;;;50.47;24.83;;;;;;;11.62;100.00;100611.50;5038724;28;20041;-78
2022/10/15 03:15:30;;;;;;;42.47;24.25;;;;;;;11.67;100.00;100613.91;5038155;28;20059;-78
2022/10/15 03:17:55;;;;;;;48.40;26.80;;;;;;;11.68;100.00;100614.72;5019924;28;20097;-79
2022/10/15 03:20:21;;;;;;;47.53;26.08;;;;;;;11.65;100.00;100612.72;5037738;28;20056;-78
2022/10/15 03:22:46;;;;;;;56.65;29.50;;;;;;;11.71;100.00;100613.94;5040645;28;20060;-78
2022/10/15 03:25:12;;;;;;;54.20;29.00;;;;;;;11.65;100.00;100609.91;5022951;28;20024;-78
2022/10/15 03:27:37;;;;;;;49.60;27.17;;;;;;;11.60;100.00;100602.69;5043311;28;20083;-79
2022/10/15 03:30:02;;;;;;;48.83;26.58;;;;;;;11.56;100.00;100608.25;5021274;28;20049;-78
2022/10/15 03:32:28;;;;;;;62.65;31.98;;;;;;;11.56;100.00;100602.66;5022036;28;20025;-79
2022/10/15 03:34:53;;;;;;;48.38;26.40;;;;;;;11.54;100.00;100598.63;5039798;28;20035;-78
2022/10/15 03:37:18;;;;;;;53.33;27.27;;;;;;;11.63;100.00;100598.28;5018289;28;20420;-78
2022/10/15 03:39:44;;;;;;;59.42;29.08;;;;;;;11.56;100.00;100594.25;5021137;28;21314;-79
2022/10/15 03:42:09;;;;;;;53.47;29.05;;;;;;;11.63;100.00;100590.66;5038257;28;20037;-79
2022/10/15 03:44:35;;;;;;;53.22;28.13;;;;;;;11.64;100.00;100583.06;5027937;28;20115;-78
2022/10/15 03:47:00;;;;;;;53.95;28.42;;;;;;;11.53;100.00;100597.84;5041352;28;20406;-79
2022/10/15 03:49:25;;;;;;;54.90;29.50;;;;;;;11.59;100.00;100598.25;5040858;28;20095;-78
2022/10/15 03:51:50;;;;;;;54.55;28.90;;;;;;;11.51;100.00;100589.00;5039280;28;20050;-78
2022/10/15 03:54:16;;;;;;;49.55;28.98;;;;;;;11.50;100.00;100590.19;5023527;28;20256;-78
2022/10/15 03:56:41;;;;;;;62.30;32.55;;;;;;;11.50;100.00;100586.59;5028582;28;20027;-78
2022/10/15 03:59:06;;;;;;;58.35;29.98;;;;;;;11.51;100.00;100594.63;5027726;28;20040;-78
2022/10/15 04:01:32;;;;;;;58.25;31.25;;;;;;;11.45;100.00;100579.38;5041161;28;20385;-78
2022/10/15 04:03:57;;;;;;;65.68;33.40;;;;;;;11.43;100.00;100592.16;5026199;28;20562;-78
2022/10/15 04:06:22;;;;;;;62.53;31.92;;;;;;;11.36;100.00;100587.31;5044284;28;20449;-78
2022/10/15 04:08:48;;;;;;;64.18;32.75;;;;;;;11.33;100.00;100588.09;5026194;28;20653;-78
2022/10/15 04:11:13;;;;;;;65.70;33.67;;;;;;;11.29;100.00;100576.84;5027970;28;20056;-79
2022/10/15 04:13:39;;;;;;;75.63;39.28;;;;;;;11.29;100.00;100584.47;5022942;28;20385;-78
2022/10/15 04:16:04;;;;;;;69.25;35.30;;;;;;;11.23;100.00;100583.22;5022003;28;20029;-79
2022/10/15 04:18:30;;;;;;;75.90;35.75;;;;;;;11.30;100.00;100586.06;5022596;28;20033;-79
2022/10/15 04:21:00;;;;;;;69.63;32.50;;;;;;;11.35;100.00;100586.50;5025350;28;20461;-79
2022/10/15 04:23:25;;;;;;;61.17;32.03;;;;;;;11.37;100.00;100588.91;5042080;28;20039;-78
2022/10/15 04:25:50;;;;;;;67.70;33.45;;;;;;;11.47;100.00;100593.78;5048461;28;20025;-78
2022/10/15 04:28:16;;;;;;;69.85;32.70;;;;;;;11.42;100.00;100585.75;5042304;28;20029;-79
2022/10/15 04:30:41;;;;;;;63.80;32.58;;;;;;;11.49;100.00;100582.16;5024589;28;20643;-78
2022/10/15 04:33:07;;;;;;;64.55;32.15;;;;;;;11.50;100.00;100587.41;5028155;28;20481;-78
2022/10/15 04:35:33;;;;;;;63.55;34.33;;;;;;;11.43;100.00;100597.78;5045994;28;20551;-78
2022/10/15 04:37:59;;;;;;;75.00;34.92;;;;;;;11.38;100.00;100598.94;5030239;28;20087;-78
2022/10/15 04:40:26;;;;;;;68.30;32.63;;;;;;;11.36;100.00;100593.72;5022273;28;20041;-78
2022/10/15 04:42:51;;;;;;;77.20;36.67;;;;;;;11.33;100.00;100600.09;5041505;28;20036;-78
2022/10/15 04:45:17;;;;;;;90.38;42.53;;;;;;;11.34;100.00;100606.50;5038188;28;20071;-78
2022/10/15 04:47:43;;;;;;;78.30;37.28;;;;;;;11.35;100.00;100608.91;5024541;28;20039;-78
2022/10/15 04:50:08;;;;;;;74.68;36.05;;;;;;;11.31;100.00;100613.69;5022195;28;20018;-78
2022/10/15 04:52:34;;;;;;;68.85;33.83;;;;;;;11.33;100.00;100602.09;5042007;28;20757;-79
2022/10/15 04:55:01;;;;;;;64.97;33.20;;;;;;;11.29;100.00;100598.47;5022486;28;20036;-79
2022/10/15 04:57:27;;;;;;;75.70;35.47;;;;;;;11.33;100.00;100588.88;5043684;28;20098;-79
2022/10/15 04:59:52;;;;;;;87.57;40.83;;;;;;;11.30;100.00;100588.84;5027425;28;21803;-79
2022/10/15 05:02:18;;;;;;;84.88;40.55;;;;;;;11.31;100.00;100584.88;5022966;28;20060;-79
2022/10/15 05:04:43;;;;;;;84.15;40.10;;;;;;;11.24;100.00;100596.06;5037239;28;20037;-79
2022/10/15 05:07:08;;;;;;;90.35;39.63;;;;;;;11.29;100.00;100581.66;5045640;28;20151;-79
2022/10/15 05:09:34;;;;;;;77.88;37.03;;;;;;;11.21;100.00;100578.00;5037967;28;20119;-79
2022/10/15 05:11:59;;;;;;;91.20;42.65;;;;;;;11.29;100.00;100581.66;5017648;28;20025;-80
2022/10/15 05:14:24;;;;;;;73.43;33.13;;;;;;;11.34;100.00;100582.09;5015594;28;20044;-79
2022/10/15 05:16:50;;;;;;;72.50;36.13;;;;;;;11.41;100.00;100591.75;5035404;28;20039;-80
2022/10/15 05:19:16;;;;;;;75.05;34.80;;;;;;;11.33;100.00;100590.91;5036270;28;20052;-80
2022/10/15 05:21:42;;;;;;;87.85;38.97;;;;;;;11.37;100.00;100594.53;5032849;28;20029;-78
2022/10/15 05:24:08;;;;;;;81.45;38.05;;;;;;;11.30;100.00;100595.28;5036781;28;20039;-80
2022/10/15 05:26:34;;;;;;;81.10;38.60;;;;;;;11.31;100.00;100602.47;5037604;28;20554;-79
2022/10/15 05:29:00;;;;;;;74.63;36.85;;;;;;;11.29;100.00;100596.47;5035228;28;20025;-79
2022/10/15 05:31:28;;;;;;;71.32;35.00;;;;;;;11.38;100.00;100601.72;5034493;28;20366;-79
2022/10/15 05:33:54;;;;;;;90.10;40.95;;;;;;;11.41;100.00;100600.16;5033526;28;20320;-81
2022/10/15 05:36:25;;;;;;;98.25;44.20;;;;;;;11.30;100.00;100589.69;5040999;28;20563;-79
2022/10/15 05:38:53;;;;;;;100.10;44.30;;;;;;;11.27;100.00;100592.44;5044020;28;20035;-79
2022/10/15 05:41:19;;;;;;;93.75;41.30;;;;;;;11.26;100.00;100594.47;5046086;28;20029;-79
2022/10/15 05:43:46;;;;;;;103.35;45.17;;;;;;;11.31;100.00;100601.69;5036860;28;20250;-79
2022/10/15 05:46:11;;;;;;;88.57;39.67;;;;;;;11.30;100.00;100600.06;5028565;28;20041;-80
2022/10/15 05:48:37;;;;;;;88.75;40.67;;;;;;;11.35;100.00;100599.72;5025314;28;20029;-79
2022/10/15 05:51:09;;;;;;;77.40;36.35;;;;;;;11.34;100.00;100603.69;5023246;28;20056;-79
2022/10/15 05:53:35;;;;;;;102.88;45.97;;;;;;;11.32;100.00;100597.69;5036516;28;20132;-79
2022/10/15 05:56:00;;;;;;;88.55;41.10;;;;;;;11.31;100.00;100604.50;5020844;28;20576;-80
2022/10/15 05:58:27;;;;;;;88.28;43.28;;;;;;;11.35;100.00;100608.13;5032887;28;20766;-79
2022/10/15 06:00:56;;;;;;;92.28;41.67;;;;;;;11.33;100.00;100600.09;5038106;28;20717;-79
2022/10/15 06:03:22;;;;;;;90.57;44.17;;;;;;;11.34;100.00;100606.50;5016224;28;20541;-79
2022/10/15 06:05:47;;;;;;;87.03;42.88;;;;;;;11.33;100.00;100596.50;5039652;28;20025;-78
2022/10/15 06:08:13;;;;;;;79.88;37.00;;;;;;;11.35;100.00;100602.53;5032267;28;20155;-80
2022/10/15 06:10:38;;;;;;;91.68;42.95;;;;;;;11.36;100.00;100606.91;5039611;28;20066;-79
2022/10/15 06:13:04;;;;;;;88.75;40.00;;;;;;;11.44;100.00;100602.97;5037566;28;20118;-79
2022/10/15 06:15:31;;;;;;;81.22;38.08;;;;;;;11.36;100.00;100601.31;5021645;28;20025;-80
2022/10/15 06:17:56;;;;;;;81.88;38.40;;;;;;;11.44;100.00;100605.78;5033489;28;20115;-78
2022/10/15 06:20:21;;;;;;;86.10;39.42;;;;;;;11.41;100.00;100600.16;5037956;28;20037;-80
2022/10/15 06:22:47;;;;;;;96.85;44.53;;;;;;;11.34;100.00;100593.31;5032092;28;20409;-79
2022/10/15 06:25:12;;;;;;;100.40;45.17;;;;;;;11.31;100.00;100593.28;5018509;28;20021;-79
2022/10/15 06:27:38;;;;;;;92.78;43.85;;;;;;;11.35;100.00;100599.72;5022360;28;20135;-79
2022/10/15 06:30:03;;;;;;;79.35;38.72;;;;;;;11.38;100.00;100594.16;5039242;28;20111;-79
2022/10/15 06:32:29;;;;;;;83.90;41.90;;;;;;;11.44;100.00;100591.75;5026248;28;20147;-78
2022/10/15 06:34:54;;;;;;;91.13;41.63;;;;;;;11.47;100.00;100592.97;5018926;28;20384;-78
2022/10/15 06:37:20;;;;;;;81.80;39.45;;;;;;;11.42;100.00;100585.75;5030307;28;20190;-79
2022/10/15 06:39:45;;;;;;;92.00;43.75;;;;;;;11.44;100.00;100597.38;5035991;28;20032;-79
2022/10/15 06:42:11;;;;;;;76.63;38.47;;;;;;;11.47;100.00;100604.19;5019341;28;20025;-80
2022/10/15 06:44:36;;;;;;;82.75;39.72;;;;;;;11.53;100.00;100606.25;5043773;28;20115;-78
2022/10/15 06:47:02;;;;;;;85.88;40.45;;;;;;;11.50;100.00;100601.41;5036128;28;20029;-80
2022/10/15 06:49:27;;;;;;;93.65;42.78;;;;;;;11.49;100.00;100611.03;5012590;28;20428;-79
2022/10/15 06:51:52;;;;;;;92.63;44.42;;;;;;;11.49;100.00;100607.41;5020908;28;20032;-79
2022/10/15 06:54:18;;;;;;;79.55;39.25;;;;;;;11.53;100.00;100608.22;5035817;28;20112;-79
2022/10/15 06:56:43;;;;;;;82.93;38.60;;;;;;;11.50;100.00;100606.22;5037430;28;20041;-79
2022/10/15 06:59:08;;;;;;;96.00;46.55;;;;;;;11.56;100.00;100607.47;5018155;28;20459;-78
2022/10/15 07:01:34;;;;;;;94.10;44.45;;;;;;;11.56;100.00;100602.66;5013532;28;20029;-79
2022/10/15 07:03:59;;;;;;;97.72;42.92;;;;;;;11.56;100.00;100599.84;5027764;28;20538;-79
2022/10/15 07:06:24;;;;;;;112.85;49.70;;;;;;;11.53;100.00;100600.66;5029890;28;20112;-78
2022/10/15 07:08:50;;;;;;;113.95;53.17;;;;;;;11.53;100.00;100600.66;5030999;28;20032;-78
2022/10/15 07:11:15;;;;;;;115.68;50.72;;;;;;;11.46;100.00;100597.78;5029692;28;20120;-78
2022/10/15 07:13:42;;;;;;;125.90;51.17;;;;;;;11.50;100.00;100603.41;5017804;28;20032;-79
2022/10/15 07:16:09;;;;;;;102.70;47.60;;;;;;;11.54;100.00;100609.84;5027526;28;20473;-79
2022/10/15 07:18:35;;;;;;;127.15;54.40;;;;;;;11.56;100.00;100608.25;5041232;28;20025;-80
2022/10/15 07:21:02;;;;;;;137.07;55.83;;;;;;;11.60;100.00;100602.69;5040533;28;20028;-80
2022/10/15 07:23:27;;;;;;;116.30;50.97;;;;;;;11.57;100.00;100597.84;5035442;28;20544;-78
2022/10/15 07:25:53;;;;;;;141.30;55.03;;;;;;;11.60;100.00;100602.69;5035417;28;20037;-79
2022/10/15 07:28:19;;;;;;;128.35;52.13;;;;;;;11.62;100.00;100605.09;5020519;28;20056;-78
2022/10/15 07:30:44;;;;;;;141.13;57.25;;;;;;;11.64;100.00;100606.31;5037910;28;20564;-79
2022/10/15 07:33:09;;;;;;;136.60;54.05;;;;;;;11.70;100.00;100606.72;5049462;28;20041;-79
2022/10/15 07:35:36;;;;;;;139.98;56.72;;;;;;;11.74;100.00;100604.75;5022594;28;20029;-78
2022/10/15 07:38:02;;;;;;;125.50;51.55;;;;;;;11.71;100.00;100611.94;5037009;28;20086;-79
2022/10/15 07:40:28;;;;;;;134.82;54.45;;;;;;;11.72;100.00;100604.31;5016441;28;20047;-78
2022/10/15 07:42:57;;;;;;;126.78;51.28;;;;;;;11.78;100.00;100613.97;5038011;28;20053;-78
2022/10/15 07:45:24;;;;;;;115.88;45.00;;;;;;;11.75;100.00;100617.56;5038410;28;20037;-81
2022/10/15 07:47:50;;;;;;;122.65;50.90;;;;;;;11.72;100.00;100609.94;5037127;28;20045;-78
2022/10/15 07:50:16;;;;;;;121.72;51.53;;;;;;;11.72;100.00;100616.38;5043560;28;20036;-78
2022/10/15 07:52:41;;;;;;;148.38;57.10;;;;;;;11.85;100.00;100627.22;5031901;28;20481;-79
2022/10/15 07:55:07;;;;;;;113.60;46.40;;;;;;;11.80;100.00;100620.81;5040044;28;20060;-78
2022/10/15 07:57:32;;;;;;;126.18;49.33;;;;;;;11.83;100.00;100622.03;5042331;28;20045;-79
2022/10/15 07:59:57;;;;;;;136.88;53.58;;;;;;;11.89;100.00;100626.09;5038869;28;20029;-79
2022/10/15 08:02:23;;;;;;;120.72;47.08;;;;;;;11.87;100.00;100611.63;5043907;28;20024;-78
2022/10/15 08:04:48;;;;;;;121.13;49.75;;;;;;;11.89;100.00;100609.28;5043910;28;20457;-78
2022/10/15 08:07:13;;;;;;;125.85;47.40;;;;;;;11.91;100.00;100612.50;5043106;28;20041;-79
2022/10/15 08:09:39;;;;;;;124.13;50.65;;;;;;;11.94;100.00;100617.28;5034864;28;20021;-78
2022/10/15 08:12:05;;;;;;;112.05;47.90;;;;;;;11.97;100.00;100619.34;5039308;28;20106;-79
2022/10/15 08:14:33;;;;;;;115.05;45.90;;;;;;;11.97;100.00;100624.94;5021312;28;20026;-78
2022/10/15 08:17:01;;;;;;;109.70;44.92;;;;;;;11.95;100.00;100612.47;5040089;28;20390;-81
2022/10/15 08:19:26;;;;;;;119.88;44.72;;;;;;;12.03;100.00;100613.34;5022040;28;20337;-79
2022/10/15 08:21:51;;;;;;;111.47;44.47;;;;;;;12.06;100.00;100612.53;5050521;28;20499;-78
2022/10/15 08:24:17;;;;;;;95.05;38.20;;;;;;;12.04;100.00;100606.50;5023676;28;20389;-78
2022/10/15 08:26:42;;;;;;;85.95;38.50;;;;;;;12.16;100.00;100594.94;5040256;28;20507;-78
2022/10/15 08:29:09;;;;;;;90.57;38.95;;;;;;;12.17;100.00;100607.78;5024421;28;20396;-78
2022/10/15 08:31:34;;;;;;;92.90;37.95;;;;;;;12.21;100.00;100608.59;5044130;28;20139;-78
2022/10/15 08:34:01;;;;;;;89.53;37.53;;;;;;;12.24;100.00;100604.97;5044617;28;20549;-79
2022/10/15 08:36:26;;;;;;;84.13;35.72;;;;;;;12.27;100.00;100594.97;5040799;28;20392;-78
2022/10/15 08:38:52;;;;;;;77.43;36.38;;;;;;;12.34;100.00;100590.19;5037314;28;20039;-78
2022/10/15 08:41:32;;;;;;;70.07;32.15;;;;;;;12.35;100.00;100594.63;5043455;28;20341;-79
2022/10/15 08:43:58;;;;;;;68.15;30.75;;;;;;;12.34;100.00;100601.41;5036112;28;20396;-78
2022/10/15 08:46:34;;;;;;;71.53;31.80;;;;;;;12.37;100.00;100595.00;5038769;28;20274;-78
2022/10/15 08:49:00;;;;;;;69.40;32.17;;;;;;;12.47;100.00;100592.63;5037340;28;20048;-78
2022/10/15 08:51:41;;;;;;;72.90;31.67;;;;;;;12.54;100.00;100592.63;5035944;28;20472;-78
2022/10/15 08:54:14;;;;;;;74.13;33.00;;;;;;;12.57;100.00;100589.84;5034772;28;20471;-79
2022/10/15 08:56:44;;;;;;;68.90;33.28;;;;;;;12.59;100.00;100586.63;5024602;28;20585;-79
2022/10/15 08:59:19;;;;;;;68.28;31.38;;;;;;;12.60;100.00;100585.41;5023498;28;20132;-78
2022/10/15 09:01:56;;;;;;;72.45;32.35;;;;;;;12.67;100.00;100584.63;5020298;28;20044;-78
2022/10/15 09:04:25;;;;;;;64.10;29.60;;;;;;;12.70;100.00;100567.78;5043730;28;20485;-78
2022/10/15 09:07:08;;;;;;;63.95;26.90;;;;;;;12.79;100.00;100575.81;5020893;28;20432;-78
2022/10/15 09:09:47;;;;;;;67.18;28.30;;;;;;;12.87;100.00;100577.41;5040382;28;20040;-78
2022/10/15 09:12:44;;;;;;;64.65;28.30;;;;;;;12.88;100.00;100569.78;5032072;28;20021;-78
2022/10/15 09:15:14;;;;;;;55.03;25.02;;;;;;;12.94;100.00;100568.19;5048493;28;20486;-78
2022/10/15 09:17:41;;;;;;;64.78;27.42;;;;;;;13.10;100.00;100574.19;5026276;28;20033;-78
2022/10/15 09:20:15;;;;;;;62.03;26.83;;;;;;;13.16;100.00;100583.81;5044815;28;20028;-79
2022/10/15 09:22:41;;;;;;;55.05;23.52;;;;;;;13.04;100.00;100587.03;5036056;28;20104;-78
2022/10/15 09:25:15;;;;;;;53.85;23.20;;;;;;;13.08;100.00;100585.03;5039180;28;20116;-78
2022/10/15 09:27:42;;;;;;;57.00;25.05;;;;;;;13.18;100.00;100586.25;5026775;28;20111;-78
2022/10/15 09:30:26;;;;;;;50.92;22.42;;;;;;;13.16;100.00;100572.59;5033067;28;20119;-78
2022/10/15 09:33:15;;;;;;;47.50;23.08;;;;;;;13.20;100.00;100573.38;5036914;28;20064;-78
2022/10/15 09:35:44;;;;;;;49.35;23.13;;;;;;;13.28;100.00;100567.75;5044245;28;20082;-78
2022/10/15 09:38:53;;;;;;;49.80;23.23;;;;;;;13.37;100.00;100566.16;5042969;28;20025;-77
2022/10/15 09:41:52;;;;;;;48.85;21.88;;;;;;;13.34;100.00;100560.53;4964372;28;20047;-78
2022/10/15 09:44:23;;;;;;;57.88;25.50;;;;;;;13.51;100.00;100562.50;5023519;28;20469;-78
2022/10/15 09:46:50;;;;;;;51.40;22.40;;;;;;;13.64;100.00;100574.13;5029529;28;20028;-78
2022/10/15 09:49:23;;;;;;;50.60;23.50;;;;;;;13.75;100.00;100562.84;5041414;28;20034;-78
2022/10/15 09:52:07;;;;;;;50.50;22.73;;;;;;;13.68;100.00;100558.06;5042453;28;20354;-78
2022/10/15 09:55:06;;;;;;;49.85;22.88;;;;;;;13.58;100.00;100554.06;5042316;28;20647;-78
2022/10/15 09:57:35;;;;;;;47.88;22.90;;;;;;;13.59;100.00;100555.66;5043626;28;20128;-77
2022/10/15 10:00:06;;;;;;;50.05;24.92;;;;;;;13.50;100.00;100557.31;5040626;28;20060;-78
2022/10/15 10:02:32;;;;;;;55.00;26.52;;;;;;;13.57;100.00;100555.25;5027630;28;20029;-78
2022/10/15 10:05:19;;;;;;;58.13;26.70;;;;;;;13.49;100.00;100545.25;5034386;28;20499;-78
2022/10/15 10:07:44;;;;;;;51.90;22.77;;;;;;;13.54;100.00;100541.22;5024305;28;20048;-78
2022/10/15 10:10:26;;;;;;;50.38;24.63;;;;;;;13.55;100.00;100540.78;5033052;28;20033;-78
2022/10/15 10:12:53;;;;;;;48.33;22.63;;;;;;;13.54;100.00;100539.22;5028463;28;20512;-79
2022/10/15 10:15:35;;;;;;;47.20;23.10;;;;;;;13.53;100.00;100543.22;5028346;28;20036;-78
2022/10/15 10:18:06;;;;;;;55.75;26.63;;;;;;;13.54;100.00;100529.97;5039510;28;20037;-80
2022/10/15 10:20:33;;;;;;;54.50;24.48;;;;;;;13.61;100.00;100530.72;5045158;28;20028;-79
2022/10/15 10:23:00;;;;;;;51.22;23.95;;;;;;;13.66;100.00;100537.97;5025961;28;20191;-79
2022/10/15 10:25:26;;;;;;;51.08;24.65;;;;;;;13.68;100.00;100526.28;5046729;28;20033;-79
2022/10/15 10:27:53;;;;;;;46.22;22.73;;;;;;;13.72;100.00;100516.63;5028215;28;20385;-79
2022/10/15 10:30:19;;;;;;;39.13;20.65;;;;;;;13.86;100.00;100517.78;5025548;28;20523;-79
2022/10/15 10:32:45;;;;;;;38.15;19.83;;;;;;;13.91;100.00;100509.69;5037080;28;20039;-79
2022/10/15 10:35:22;;;;;;;42.28;21.25;;;;;;;13.99;100.00;100507.66;5036855;28;20043;-80
2022/10/15 10:37:48;;;;;;;40.72;19.98;;;;;;;14.05;100.00;100508.03;5044426;28;20040;-79
2022/10/15 10:40:25;;;;;;;36.30;18.77;;;;;;;14.21;100.00;100509.16;5043824;28;20029;-79
2022/10/15 10:43:10;;;;;;;37.05;18.25;;;;;;;14.15;100.00;100499.53;5040841;28;20673;-79
2022/10/15 10:45:36;;;;;;;39.50;19.83;;;;;;;14.22;100.00;100496.66;5047536;28;20484;-79
2022/10/15 10:48:20;;;;;;;44.75;21.92;;;;;;;14.16;100.00;100494.69;5038342;28;20120;-78
2022/10/15 10:50:45;;;;;;;37.28;20.77;;;;;;;14.15;100.00;100501.56;5026546;28;20020;-78
2022/10/15 10:53:23;;;;;;;38.95;18.92;;;;;;;14.10;100.00;100488.69;5046555;28;20392;-78
2022/10/15 10:55:51;;;;;;;40.55;20.67;;;;;;;14.19;100.00;100491.06;5047310;28;20455;-78
2022/10/15 10:58:19;;;;;;;34.45;18.38;;;;;;;14.16;100.00;100481.41;5029471;28;20064;-78
2022/10/15 11:00:51;;;;;;;34.03;17.95;;;;;;;14.18;100.00;100478.19;5049216;28;20094;-78
2022/10/15 11:03:28;;;;;;;42.45;20.38;;;;;;;14.15;100.00;100481.84;5052479;28;20556;-78
2022/10/15 11:06:19;;;;;;;32.78;17.88;;;;;;;14.11;100.00;100486.69;5045553;28;20025;-78
2022/10/15 11:08:54;;;;;;;42.05;20.10;;;;;;;14.10;100.00;100490.72;5024103;28;20032;-78
2022/10/15 11:11:49;;;;;;;36.28;20.92;;;;;;;14.12;100.00;100488.28;5048656;28;20029;-79